createdAt,value
2023-01-04T00:02:10.403Z,100886.00
2023-01-04T00:04:43.328Z,100867.00
2023-01-04T00:07:16.282Z,100872.00
2023-01-04T00:09:50.958Z,100908.00
2023-01-04T00:12:27.396Z,100881.00
2023-01-04T00:15:00.896Z,100882.00
2023-01-04T00:17:33.778Z,100876.00
2023-01-04T00:20:06.877Z,100885.00
2023-01-04T00:22:40.071Z,100881.00
2023-01-04T00:25:13.568Z,100863.00
2023-01-04T00:27:46.788Z,100859.00
2023-01-04T00:30:20.001Z,100873.00
2023-01-04T00:32:52.937Z,100856.00
2023-01-04T00:35:45.213Z,100849.00
2023-01-04T00:38:02.213Z,100867.00
2023-01-04T00:40:35.060Z,100879.00
2023-01-04T00:43:07.848Z,100869.00
2023-01-04T00:45:40.786Z,100882.00
2023-01-04T00:48:13.727Z,100865.00
2023-01-04T00:50:47.820Z,100870.00
2023-01-04T00:53:21.567Z,100849.00
2023-01-04T00:55:55.947Z,100862.00
2023-01-04T00:58:28.833Z,100860.00
2023-01-04T01:01:03.238Z,100868.00
2023-01-04T01:03:38.690Z,100847.00
2023-01-04T01:06:11.760Z,100853.00
2023-01-04T01:08:44.792Z,100836.00
2023-01-04T01:11:17.726Z,100855.00
2023-01-04T01:13:51.720Z,100820.00
2023-01-04T01:16:52.885Z,100839.00
2023-01-04T01:19:00.760Z,100828.00
2023-01-04T01:21:34.723Z,100844.00
2023-01-04T01:24:07.773Z,100814.00
2023-01-04T01:26:40.506Z,100844.00
2023-01-04T01:29:13.645Z,100827.00
2023-01-04T01:31:46.743Z,100802.00
2023-01-04T01:34:20.214Z,100802.00
2023-01-04T01:36:53.058Z,100820.00
2023-01-04T01:39:25.790Z,100815.00
2023-01-04T01:41:58.623Z,100806.00
2023-01-04T01:44:52.773Z,100832.00
2023-01-04T01:47:30.912Z,100834.00
2023-01-04T01:50:04.060Z,100804.00
2023-01-04T01:52:39.046Z,100798.00
2023-01-04T01:55:13.409Z,100801.00
2023-01-04T01:57:47.517Z,100814.00
2023-01-04T02:00:20.868Z,100811.00
2023-01-04T02:03:11.371Z,100805.00
2023-01-04T02:05:44.586Z,100792.00
2023-01-04T02:08:18.363Z,100800.00
2023-01-04T02:10:51.475Z,100791.00
2023-01-04T02:13:26.405Z,100803.00
2023-01-04T02:16:04.428Z,100780.00
2023-01-04T02:18:39.551Z,100787.00
2023-01-04T02:21:23.461Z,100786.00
2023-01-04T02:24:31.578Z,100781.00
2023-01-04T02:27:25.716Z,100777.00
2023-01-04T02:30:00.618Z,100779.00
2023-01-04T02:32:56.819Z,100789.00
2023-01-04T02:35:35.002Z,100787.00
2023-01-04T02:38:13.056Z,100778.00
2023-01-04T02:41:10.289Z,100785.00
2023-01-04T02:44:23.142Z,100778.00
2023-01-04T02:47:01.410Z,100785.00
2023-01-04T02:49:51.895Z,100768.00
2023-01-04T02:52:25.915Z,100783.00
2023-01-04T02:55:00.193Z,100752.00
2023-01-04T02:57:50.951Z,100752.00
2023-01-04T03:00:41.581Z,100762.00
2023-01-04T03:03:33.649Z,100757.00
2023-01-04T03:06:20.803Z,100743.00
2023-01-04T03:09:04.593Z,100742.00
2023-01-04T03:12:08.396Z,100746.00
2023-01-04T03:14:43.081Z,100753.00
2023-01-04T03:17:18.254Z,100734.00
2023-01-04T03:19:56.680Z,100729.00
2023-01-04T03:23:00.986Z,100732.00
2023-01-04T03:25:52.916Z,100727.00
2023-01-04T03:28:44.870Z,100752.00
2023-01-04T03:31:48.578Z,100745.00
2023-01-04T03:34:54.690Z,100766.00
2023-01-04T03:37:43.298Z,100746.00
2023-01-04T03:40:40.662Z,100739.00
2023-01-04T03:43:38.650Z,100749.00
2023-01-04T03:46:33.507Z,100740.00
2023-01-04T03:49:11.192Z,100738.00
2023-01-04T03:51:44.535Z,100740.00
2023-01-04T03:54:24.907Z,100721.00
2023-01-04T03:56:58.561Z,100735.00
2023-01-04T03:59:31.396Z,100741.00
2023-01-04T04:02:04.636Z,100726.00
2023-01-04T04:04:54.850Z,100743.00
2023-01-04T04:07:45.137Z,100741.00
2023-01-04T04:10:18.025Z,100734.00
2023-01-04T04:12:53.927Z,100724.00
2023-01-04T04:15:27.002Z,100725.00
2023-01-04T04:18:00.576Z,100727.00
2023-01-04T04:20:33.635Z,100722.00
2023-01-04T04:23:06.550Z,100716.00
2023-01-04T04:25:39.597Z,100714.00
2023-01-04T04:28:12.537Z,100710.00
2023-01-04T04:30:45.699Z,100715.00
2023-01-04T04:33:18.545Z,100709.00
2023-01-04T04:35:55.112Z,100715.00
2023-01-04T04:38:27.840Z,100716.00
2023-01-04T04:41:18.570Z,100704.00
2023-01-04T04:43:54.611Z,100710.00
2023-01-04T04:46:28.003Z,100712.00
2023-01-04T04:49:00.823Z,100704.00
2023-01-04T04:51:33.801Z,100699.00
2023-01-04T04:54:07.864Z,100703.00
2023-01-04T04:56:40.930Z,100693.00
2023-01-04T04:59:14.790Z,100701.00
2023-01-04T05:01:48.094Z,100698.00
2023-01-04T05:04:21.551Z,100697.00
2023-01-04T05:06:54.965Z,100680.00
2023-01-04T05:09:28.056Z,100689.00
2023-01-04T05:12:18.190Z,100698.00
2023-01-04T05:14:51.583Z,100683.00
2023-01-04T05:17:24.615Z,100685.00
2023-01-04T05:19:57.952Z,100678.00
2023-01-04T05:22:30.922Z,100681.00
2023-01-04T05:25:03.893Z,100685.00
2023-01-04T05:27:36.656Z,100708.00
2023-01-04T05:30:27.372Z,100681.00
2023-01-04T05:33:00.419Z,100714.00
2023-01-04T05:35:33.765Z,100696.00
2023-01-04T05:38:06.563Z,100721.00
2023-01-04T05:40:39.551Z,100708.00
2023-01-04T05:43:12.672Z,100713.00
2023-01-04T05:45:47.214Z,100707.00
2023-01-04T05:48:20.212Z,100725.00
2023-01-04T05:50:53.147Z,100718.00
2023-01-04T05:53:26.032Z,100724.00
2023-01-04T05:55:59.025Z,100731.00
2023-01-04T05:58:31.979Z,100726.00
2023-01-04T06:01:04.850Z,100737.00
2023-01-04T06:03:37.984Z,100744.00
2023-01-04T06:06:11.187Z,100722.00
2023-01-04T06:08:48.260Z,100733.00
2023-01-04T06:11:27.255Z,100716.00
2023-01-04T06:13:55.386Z,100712.00
2023-01-04T06:16:28.412Z,100736.00
2023-01-04T06:19:01.388Z,100725.00
2023-01-04T06:21:34.201Z,100743.00
2023-01-04T06:24:07.326Z,100746.00
2023-01-04T06:26:40.276Z,100738.00
2023-01-04T06:29:13.231Z,100734.00
2023-01-04T06:31:46.329Z,100735.00
2023-01-04T06:34:20.391Z,100745.00
2023-01-04T06:36:53.839Z,100738.00
2023-01-04T06:39:26.778Z,100731.00
2023-01-04T06:42:06.340Z,100748.00
2023-01-04T06:44:33.741Z,100739.00
2023-01-04T06:47:06.870Z,100725.00
2023-01-04T06:49:39.900Z,100735.00
2023-01-04T06:52:12.853Z,100740.00
2023-01-04T06:54:45.786Z,100733.00
2023-01-04T06:57:18.815Z,100740.00
2023-01-04T06:59:51.855Z,100736.00
2023-01-04T07:02:24.880Z,100736.00
2023-01-04T07:04:57.714Z,100748.00
2023-01-04T07:07:30.614Z,100753.00
2023-01-04T07:10:09.080Z,100751.00
2023-01-04T07:12:37.694Z,100759.00
2023-01-04T07:15:38.927Z,100754.00
2023-01-04T07:17:45.736Z,100754.00
2023-01-04T07:20:18.770Z,100738.00
2023-01-04T07:22:52.115Z,100744.00
2023-01-04T07:25:25.443Z,100759.00
2023-01-04T07:27:58.674Z,100763.00
2023-01-04T07:30:31.865Z,100747.00
2023-01-04T07:33:04.992Z,100762.00
2023-01-04T07:35:37.925Z,100760.00
2023-01-04T07:38:10.991Z,100773.00
2023-01-04T07:40:56.280Z,100756.00
2023-01-04T07:43:24.232Z,100756.00
2023-01-04T07:45:53.187Z,100758.00
2023-01-04T07:48:26.323Z,100777.00
2023-01-04T07:50:59.367Z,100761.00
2023-01-04T07:53:36.715Z,100754.00
2023-01-04T07:59:06.114Z,100754.00
2023-01-04T08:01:39.947Z,100748.00
2023-01-04T08:04:14.221Z,100758.00
2023-01-04T08:06:48.873Z,100741.00
2023-01-04T08:09:22.030Z,100769.00
2023-01-04T08:11:55.211Z,100768.00
2023-01-04T08:14:29.543Z,100753.00
2023-01-04T08:17:04.047Z,100752.00
2023-01-04T08:19:37.127Z,100766.00
2023-01-04T08:22:10.669Z,100757.00
2023-01-04T08:24:43.710Z,100769.00
2023-01-04T08:27:26.226Z,100764.00
2023-01-04T08:29:59.677Z,100766.00
2023-01-04T08:32:34.136Z,100768.00
2023-01-04T08:35:07.084Z,100766.00
2023-01-04T08:37:40.118Z,100765.00
2023-01-04T08:40:14.178Z,100779.00
2023-01-04T08:42:51.493Z,100781.00
2023-01-04T08:45:24.503Z,100823.00
2023-01-04T08:47:57.435Z,100790.00
2023-01-04T08:50:30.527Z,100780.00
2023-01-04T08:53:08.047Z,100783.00
2023-01-04T08:55:41.063Z,100780.00
2023-01-04T08:58:14.050Z,100773.00
2023-01-04T09:00:46.954Z,100786.00
2023-01-04T09:03:19.945Z,100784.00
2023-01-04T09:05:52.922Z,100790.00
2023-01-04T09:08:25.947Z,100801.00
2023-01-04T09:10:58.915Z,100801.00
2023-01-04T09:13:31.816Z,100797.00
2023-01-04T09:16:09.431Z,100803.00
2023-01-04T09:18:42.744Z,100797.00
2023-01-04T09:21:17.858Z,100800.00
2023-01-04T09:23:51.953Z,100807.00
2023-01-04T09:26:26.461Z,100814.00
2023-01-04T09:29:00.699Z,100810.00
2023-01-04T09:31:33.704Z,100810.00
2023-01-04T09:34:15.811Z,100809.00
2023-01-04T09:36:41.025Z,100800.00
2023-01-04T09:39:21.776Z,100813.00
2023-01-04T09:41:53.557Z,100805.00
2023-01-04T09:47:31.665Z,100814.00
2023-01-04T09:50:10.043Z,100827.00
2023-01-04T09:52:47.961Z,100811.00
2023-01-04T09:55:37.803Z,100798.00
2023-01-04T09:58:12.357Z,100779.00
2023-01-04T10:00:50.510Z,100797.00
2023-01-04T10:03:31.879Z,100800.00
2023-01-04T10:06:06.277Z,100806.00
2023-01-04T10:08:39.445Z,100790.00
2023-01-04T10:11:26.853Z,100781.00
2023-01-04T10:14:24.979Z,100788.00
2023-01-04T10:17:14.106Z,100800.00
2023-01-04T10:23:23.591Z,100791.00
2023-01-04T10:26:17.067Z,100780.00
2023-01-04T10:29:09.574Z,100788.00
2023-01-04T10:31:55.056Z,100780.00
2023-01-04T10:34:52.768Z,100789.00
2023-01-04T10:37:31.558Z,100798.00
2023-01-04T10:40:06.494Z,100804.00
2023-01-04T10:42:50.422Z,100802.00
2023-01-04T10:45:25.096Z,100804.00
2023-01-04T10:48:09.376Z,100796.00
2023-01-04T10:51:04.987Z,100788.00
2023-01-04T10:53:46.900Z,100790.00
2023-01-04T10:56:45.778Z,100779.00
2023-01-04T10:59:40.812Z,100790.00
2023-01-04T11:05:30.131Z,100778.00
2023-01-04T11:08:12.949Z,100780.00
2023-01-04T11:10:48.826Z,100770.00
2023-01-04T11:13:21.954Z,100763.00
2023-01-04T11:15:55.741Z,100776.00
2023-01-04T11:18:28.924Z,100777.00
2023-01-04T11:21:02.460Z,100766.00
2023-01-04T11:23:35.197Z,100767.00
2023-01-04T11:26:15.554Z,100780.00
2023-01-04T11:28:59.450Z,100770.00
2023-01-04T11:31:46.652Z,100760.00
2023-01-04T11:34:19.509Z,100752.00
2023-01-04T11:36:55.242Z,100752.00
2023-01-04T11:39:30.048Z,100752.00
2023-01-04T11:42:07.825Z,100748.00
2023-01-04T11:44:40.906Z,100750.00
2023-01-04T11:47:28.254Z,100753.00
2023-01-04T11:50:00.193Z,100746.00
2023-01-04T11:52:34.784Z,100755.00
2023-01-04T11:55:26.540Z,100738.00
2023-01-04T11:58:19.526Z,100748.00
2023-01-04T12:00:57.243Z,100745.00
2023-01-04T12:03:42.210Z,100739.00
2023-01-04T12:06:29.546Z,100748.00
2023-01-04T12:09:02.441Z,100741.00
2023-01-04T12:11:37.547Z,100725.00
2023-01-04T12:14:12.583Z,100719.00
2023-01-04T12:17:08.600Z,100714.00
2023-01-04T12:19:43.122Z,100708.00
2023-01-04T12:22:23.745Z,100690.00
2023-01-04T12:25:00.793Z,100701.00
2023-01-04T12:27:31.382Z,100699.00
2023-01-04T12:30:11.873Z,100679.00
2023-01-04T12:32:47.111Z,100705.00
2023-01-04T12:35:55.110Z,100719.00
2023-01-04T12:38:46.134Z,100696.00
2023-01-04T12:41:18.963Z,100694.00
2023-01-04T12:43:51.862Z,100686.00
2023-01-04T12:46:55.697Z,100706.00
2023-01-04T12:49:37.596Z,100693.00
2023-01-04T12:52:42.662Z,100694.00
2023-01-04T12:54:54.676Z,100688.00
2023-01-04T12:57:41.932Z,100674.00
2023-01-04T13:00:18.779Z,100690.00
2023-01-04T13:02:54.238Z,100682.00
2023-01-04T13:05:55.490Z,100681.00
2023-01-04T13:08:05.360Z,100676.00
2023-01-04T13:10:53.821Z,100697.00
2023-01-04T13:13:59.052Z,100685.00
2023-01-04T13:16:46.589Z,100679.00
2023-01-04T13:19:31.189Z,100683.00
2023-01-04T13:22:04.019Z,100684.00
2023-01-04T13:24:38.126Z,100681.00
2023-01-04T13:27:12.679Z,100685.00
2023-01-04T13:29:46.300Z,100677.00
2023-01-04T13:32:24.241Z,100670.00
2023-01-04T13:35:00.225Z,100673.00
2023-01-04T13:37:47.429Z,100660.00
2023-01-04T13:40:28.652Z,100666.00
2023-01-04T13:43:15.396Z,100649.00
2023-01-04T13:46:18.948Z,100676.00
2023-01-04T13:48:58.207Z,100654.00
2023-01-04T13:51:36.702Z,100651.00
2023-01-04T13:54:10.118Z,100637.00
2023-01-04T13:56:43.347Z,100666.00
2023-01-04T13:59:17.491Z,100641.00
2023-01-04T14:01:55.018Z,100641.00
2023-01-04T14:04:32.924Z,100642.00
2023-01-04T14:07:06.339Z,100634.00
2023-01-04T14:09:40.931Z,100645.00
2023-01-04T14:12:21.441Z,100625.00
2023-01-04T14:15:05.067Z,100636.00
2023-01-04T14:17:51.720Z,100625.00
2023-01-04T14:20:29.584Z,100618.00
2023-01-04T14:23:02.912Z,100621.00
2023-01-04T14:25:44.961Z,100620.00
2023-01-04T14:28:32.532Z,100625.00
2023-01-04T14:31:08.476Z,100617.00
2023-01-04T14:33:43.527Z,100638.00
2023-01-04T14:36:24.346Z,100657.00
2023-01-04T14:38:58.893Z,100626.00
2023-01-04T14:41:42.238Z,100606.00
2023-01-04T14:44:17.230Z,100628.00
2023-01-04T14:46:58.710Z,100606.00
2023-01-04T14:49:33.039Z,100603.00
2023-01-04T14:52:07.492Z,100578.00
2023-01-04T14:54:41.593Z,100612.00
2023-01-04T14:57:14.867Z,100596.00
2023-01-04T14:59:48.127Z,100610.00
2023-01-04T15:02:21.475Z,100591.00
2023-01-04T15:04:56.498Z,100606.00
2023-01-04T15:07:37.212Z,100596.00
2023-01-04T15:10:12.171Z,100591.00
2023-01-04T15:12:45.133Z,100586.00
2023-01-04T15:15:18.187Z,100599.00
2023-01-04T15:17:51.400Z,100599.00
2023-01-04T15:20:24.240Z,100605.00
2023-01-04T15:22:57.293Z,100600.00
2023-01-04T15:25:31.627Z,100595.00
2023-01-04T15:28:04.483Z,100595.00
2023-01-04T15:30:37.293Z,100595.00
2023-01-04T15:33:10.073Z,100612.00
2023-01-04T15:35:43.242Z,100598.00
2023-01-04T15:38:18.523Z,100611.00
2023-01-04T15:40:52.435Z,100603.00
2023-01-04T15:43:25.265Z,100618.00
2023-01-04T15:45:58.367Z,100618.00
2023-01-04T15:48:31.277Z,100597.00
2023-01-04T15:51:09.675Z,100616.00
2023-01-04T15:53:42.588Z,100613.00
2023-01-04T15:56:16.961Z,100609.00
2023-01-04T15:58:50.731Z,100605.00
2023-01-04T16:01:24.333Z,100622.00
2023-01-04T16:03:57.308Z,100603.00
2023-01-04T16:06:30.488Z,100606.00
2023-01-04T16:09:03.788Z,100600.00
2023-01-04T16:11:36.941Z,100603.00
2023-01-04T16:14:09.935Z,100600.00
2023-01-04T16:16:45.545Z,100631.00
2023-01-04T16:19:18.663Z,100630.00
2023-01-04T16:21:51.799Z,100623.00
2023-01-04T16:26:58.811Z,100637.00
2023-01-04T16:29:31.726Z,100638.00
2023-01-04T16:32:04.660Z,100610.00
2023-01-04T16:34:37.404Z,100623.00
2023-01-04T16:37:10.292Z,100637.00
2023-01-04T16:40:05.783Z,100631.00
2023-01-04T16:42:17.463Z,100630.00
2023-01-04T16:44:50.365Z,100635.00
2023-01-04T16:47:23.300Z,100633.00
2023-01-04T16:49:56.924Z,100627.00
2023-01-04T16:52:29.855Z,100645.00
2023-01-04T16:55:02.580Z,100647.00
2023-01-04T16:57:36.012Z,100634.00
2023-01-04T17:00:09.726Z,100640.00
2023-01-04T17:02:43.885Z,100635.00
2023-01-04T17:05:16.991Z,100641.00
2023-01-04T17:07:49.733Z,100631.00
2023-01-04T17:10:27.453Z,100667.00
2023-01-04T17:12:56.502Z,100655.00
2023-01-04T17:15:43.101Z,100646.00
2023-01-04T17:18:19.287Z,100651.00
2023-01-04T17:21:11.042Z,100655.00
2023-01-04T17:23:31.877Z,100645.00
2023-01-04T17:26:09.762Z,100656.00
2023-01-04T17:28:50.804Z,100653.00
2023-01-04T17:31:25.614Z,100656.00
2023-01-04T17:33:58.517Z,100653.00
2023-01-04T17:36:31.385Z,100651.00
2023-01-04T17:39:11.817Z,100638.00
2023-01-04T17:41:44.426Z,100638.00
2023-01-04T17:44:17.230Z,100642.00
2023-01-04T17:46:51.435Z,100661.00
2023-01-04T17:49:30.869Z,100652.00
2023-01-04T17:51:59.137Z,100664.00
2023-01-04T17:54:34.166Z,100654.00
2023-01-04T17:57:07.057Z,100662.00
2023-01-04T17:59:39.878Z,100659.00
2023-01-04T18:02:14.421Z,100662.00
2023-01-04T18:04:47.304Z,100672.00
2023-01-04T18:07:20.118Z,100663.00
2023-01-04T18:09:52.948Z,100668.00
2023-01-04T18:12:25.764Z,100656.00
2023-01-04T18:14:58.534Z,100667.00
2023-01-04T18:17:31.494Z,100686.00
2023-01-04T18:20:04.471Z,100669.00
2023-01-04T18:22:38.503Z,100675.00
2023-01-04T18:25:14.609Z,100656.00
2023-01-04T18:27:45.681Z,100660.00
2023-01-04T18:30:19.005Z,100676.00
2023-01-04T18:32:51.779Z,100674.00
2023-01-04T18:35:24.675Z,100669.00
2023-01-04T18:37:57.696Z,100675.00
2023-01-04T18:40:30.601Z,100662.00
2023-01-04T18:43:03.382Z,100684.00
2023-01-04T18:45:36.332Z,100672.00
2023-01-04T18:48:09.338Z,100688.00
2023-01-04T18:50:42.198Z,100684.00
2023-01-04T18:53:15.014Z,100678.00
2023-01-04T18:55:48.009Z,100710.00
2023-01-04T18:58:21.364Z,100670.00
2023-01-04T19:00:55.529Z,100678.00
2023-01-04T19:03:28.883Z,100686.00
2023-01-04T19:06:01.892Z,100691.00
2023-01-04T19:08:34.894Z,100686.00
2023-01-04T19:11:08.235Z,100662.00
2023-01-04T19:13:41.079Z,100710.00
2023-01-04T19:16:14.744Z,100733.00
2023-01-04T19:18:47.821Z,100707.00
2023-01-04T19:21:20.713Z,100717.00
2023-01-04T19:23:54.475Z,100696.00
2023-01-04T19:26:27.654Z,100713.00
2023-01-04T19:29:00.589Z,100726.00
2023-01-04T19:31:33.715Z,100723.00
2023-01-04T19:34:06.774Z,100703.00
2023-01-04T19:36:39.400Z,100730.00
2023-01-04T19:39:12.255Z,100728.00
2023-01-04T19:41:45.193Z,100726.00
2023-01-04T19:44:18.822Z,100731.00
2023-01-04T19:46:51.601Z,100721.00
2023-01-04T19:49:29.453Z,100727.00
2023-01-04T19:52:02.307Z,100732.00
2023-01-04T19:54:35.091Z,100736.00
2023-01-04T19:57:08.168Z,100743.00
2023-01-04T19:59:41.346Z,100738.00
2023-01-04T20:02:15.776Z,100754.00
2023-01-04T20:04:49.301Z,100736.00
2023-01-04T20:07:22.433Z,100740.00
2023-01-04T20:09:55.898Z,100753.00
2023-01-04T20:12:28.894Z,100753.00
2023-01-04T20:15:01.872Z,100746.00
2023-01-04T20:17:34.797Z,100746.00
2023-01-04T20:20:07.615Z,100766.00
2023-01-04T20:22:40.906Z,100769.00
2023-01-04T20:25:14.061Z,100777.00
2023-01-04T20:27:47.465Z,100766.00
2023-01-04T20:30:20.874Z,100773.00
2023-01-04T20:32:53.792Z,100759.00
2023-01-04T20:35:26.605Z,100763.00
2023-01-04T20:37:59.749Z,100758.00
2023-01-04T20:40:32.965Z,100769.00
2023-01-04T20:43:23.346Z,100770.00
2023-01-04T20:45:56.166Z,100769.00
2023-01-04T20:48:38.563Z,100781.00
2023-01-04T20:51:20.902Z,100752.00
2023-01-04T20:53:56.663Z,100759.00
2023-01-04T20:56:30.855Z,100783.00
2023-01-04T20:59:03.957Z,100760.00
2023-01-04T21:01:37.156Z,100790.00
2023-01-04T21:04:10.537Z,100797.00
2023-01-04T21:06:44.267Z,100774.00
2023-01-04T21:09:17.209Z,100780.00
2023-01-04T21:11:50.131Z,100794.00
2023-01-04T21:14:22.935Z,100797.00
2023-01-04T21:16:56.176Z,100797.00
2023-01-04T21:19:29.209Z,100774.00
2023-01-04T21:22:03.641Z,100785.00
2023-01-04T21:24:39.522Z,100769.00
2023-01-04T21:27:18.910Z,100759.00
2023-01-04T21:29:51.525Z,100768.00
2023-01-04T21:32:24.507Z,100780.00
2023-01-04T21:34:58.526Z,100772.00
2023-01-04T21:37:31.951Z,100765.00
2023-01-04T21:40:04.776Z,100771.00
2023-01-04T21:42:37.743Z,100781.00
2023-01-04T21:45:11.682Z,100780.00
2023-01-04T21:47:44.596Z,100774.00
2023-01-04T21:50:19.332Z,100765.00
2023-01-04T21:52:52.847Z,100763.00
2023-01-04T21:55:30.956Z,100785.00
2023-01-04T21:57:59.895Z,100765.00
2023-01-04T22:00:33.031Z,100765.00
2023-01-04T22:03:05.986Z,100759.00
2023-01-04T22:05:39.194Z,100773.00
2023-01-04T22:08:12.060Z,100772.00
2023-01-04T22:10:44.880Z,100760.00
2023-01-04T22:13:17.494Z,100772.00
2023-01-04T22:15:50.401Z,100768.00
2023-01-04T22:18:23.439Z,100775.00
2023-01-04T22:20:58.056Z,100758.00
2023-01-04T22:23:32.247Z,100766.00
2023-01-04T22:26:05.079Z,100767.00
2023-01-04T22:28:38.113Z,100767.00
2023-01-04T22:31:15.323Z,100772.00
2023-01-04T22:33:48.205Z,100760.00
2023-01-04T22:36:23.353Z,100753.00
2023-01-04T22:38:57.045Z,100756.00
2023-01-04T22:41:31.348Z,100753.00
2023-01-04T22:44:05.700Z,100774.00
2023-01-04T22:46:39.208Z,100768.00
2023-01-04T22:49:12.906Z,100790.00
2023-01-04T22:51:48.565Z,100780.00
2023-01-04T22:54:21.424Z,100777.00
2023-01-04T22:56:54.430Z,100771.00
2023-01-04T22:59:31.489Z,100763.00
2023-01-04T23:02:04.897Z,100775.00
2023-01-04T23:04:38.040Z,100764.00
2023-01-04T23:07:13.259Z,100766.00
2023-01-04T23:09:46.481Z,100788.00
2023-01-04T23:12:20.466Z,100755.00
2023-01-04T23:14:53.371Z,100759.00
2023-01-04T23:17:26.357Z,100769.00
2023-01-04T23:19:59.293Z,100771.00
2023-01-04T23:22:32.162Z,100789.00
2023-01-04T23:25:06.621Z,100773.00
2023-01-04T23:27:39.330Z,100775.00
2023-01-04T23:30:13.218Z,100781.00
2023-01-04T23:32:46.335Z,100787.00
2023-01-04T23:35:19.123Z,100795.00
2023-01-04T23:37:52.066Z,100779.00
2023-01-04T23:40:24.854Z,100782.00
2023-01-04T23:42:59.002Z,100777.00
2023-01-04T23:45:31.919Z,100785.00
2023-01-04T23:48:04.768Z,100789.00
2023-01-04T23:50:37.638Z,100785.00
2023-01-04T23:53:12.087Z,100803.00
2023-01-04T23:55:45.119Z,100797.00
2023-01-04T23:58:40.115Z,100815.00
